Roma, Italia

11:44 PM CEST del 31 Agosto 2015 (GMT +0200)
Ciampino | | Change Station
CLOSE
Current Station
Stazione meteo personale
Location: Ciampino, LAZIO
Altitudine: 348 ft
Stazioni meteo nelle vicinanze

Alt. 348 ft 41.81 °N, 12.60 °E | Updated 39 seconds ago

Partly Cloudy
Parzialmente nuvoloso
79.0 °F
Sembra 79 °F
N
0.0
Vento Variabile Vento da Nord
Gusts 0.0 mph

Oggi
Massima -- | Minima -- °F
--% Possibilità di precip.
Ieri
Massima -- | Minima -- °F
Precip. -- in
6:34 AM 7:45 PM
Gobba a levante, 93% visible
Pressione 29.98 in
Visibilità 6.2 miglia
Nuvole Alcuni 7000 ft
Indice di calore 79 °F
Punto di rugiada 52 °F
Umidità 39%
Piovosità 0.00 in
Spessore del manto nevoso Non disponibile.
Raggi UV 0.0 fuori da 12
Polline Non disponibile.
Qualità dell'aria Non disponibile.
Flu Activity Non disponibile.
METAR LIRA 312120Z 10004KT 9999 FEW070 24/12 Q1015
Pressione 29.98 in
Visibilità 6.2 miglia
Nuvole Alcuni 7000 ft
Indice di calore 79 °F
Punto di rugiada 52 °F
Umidità 39%
Piovosità 0.00 in
Spessore del manto nevoso Non disponibile.
Raggi UV 0.0 fuori da 12
Polline Non disponibile.
Qualità dell'aria Non disponibile.
Flu Activity Non disponibile.
METAR LIRA 312120Z 10004KT 9999 FEW070 24/12 Q1015

10-Day Weather Forecast

×

Almanac

Astronomia

Aug. 31, 2015 Alba Tramonto
Ora attuale
Crepuscolo civile
Crepuscolo nautico
Crepuscolo astronomico
Luna
Estensione della luce visibile
Lunghezza del giorno
Tomorrow will be .
, % of the Moon is Illuminated

Gli estremi di oggi

Massime Regione Minime Regione

Community

WunderPhotos

Upload Photos

1,851,377 foto caricate!

WunderBlogs® & News

Nearby

Qualità dell'aria

  Qualità dell'aria Indice AQ Inquinante
Not available.

Profondità neve

Stazione Profondità Altitudine

Attività sismica

Città  Distanza Mag. Data & Ora
Minimo Magnitudo Mostrato è 2.5.

Temperature delle acque costiere

Località Temperatura

Stations

Stazioni meteo nelle vicinanze

Ubicazione della stazione Temp. Raffreddamento del vento Punto di rugiada Umidità Vento Precip. Alt. Aggiornato Tipo